sensor_id;sensor_type;location;lat;lon;timestamp;P1;durP1;ratioP1;P2;durP2;ratioP2
16354;SDS011;8287;51.644;8.494;2023-03-12T00:01:57;10.30;;;4.18;;
16354;SDS011;8287;51.644;8.494;2023-03-12T00:04:24;9.80;;;5.28;;
16354;SDS011;8287;51.644;8.494;2023-03-12T00:06:50;7.90;;;3.75;;
16354;SDS011;8287;51.644;8.494;2023-03-12T00:09:18;7.78;;;3.75;;
16354;SDS011;8287;51.644;8.494;2023-03-12T00:11:45;6.63;;;2.97;;
16354;SDS011;8287;51.644;8.494;2023-03-12T00:14:12;5.75;;;2.30;;
16354;SDS011;8287;51.644;8.494;2023-03-12T00:16:38;4.10;;;2.95;;
16354;SDS011;8287;51.644;8.494;2023-03-12T00:19:05;4.93;;;2.55;;
16354;SDS011;8287;51.644;8.494;2023-03-12T00:21:32;6.05;;;2.97;;
16354;SDS011;8287;51.644;8.494;2023-03-12T00:23:58;4.82;;;2.40;;
16354;SDS011;8287;51.644;8.494;2023-03-12T00:26:26;5.57;;;2.95;;
16354;SDS011;8287;51.644;8.494;2023-03-12T00:28:53;6.50;;;3.47;;
16354;SDS011;8287;51.644;8.494;2023-03-12T00:31:20;10.48;;;3.90;;
16354;SDS011;8287;51.644;8.494;2023-03-12T00:33:49;6.40;;;3.90;;
16354;SDS011;8287;51.644;8.494;2023-03-12T00:36:16;4.70;;;2.75;;
16354;SDS011;8287;51.644;8.494;2023-03-12T00:38:43;4.72;;;2.53;;
16354;SDS011;8287;51.644;8.494;2023-03-12T00:41:10;4.00;;;2.20;;
16354;SDS011;8287;51.644;8.494;2023-03-12T00:43:38;3.83;;;2.10;;
16354;SDS011;8287;51.644;8.494;2023-03-12T00:46:05;5.07;;;2.42;;
16354;SDS011;8287;51.644;8.494;2023-03-12T00:48:31;4.00;;;2.70;;
16354;SDS011;8287;51.644;8.494;2023-03-12T00:50:58;3.80;;;2.28;;
16354;SDS011;8287;51.644;8.494;2023-03-12T00:53:24;5.72;;;2.70;;
16354;SDS011;8287;51.644;8.494;2023-03-12T00:55:51;6.05;;;2.67;;
16354;SDS011;8287;51.644;8.494;2023-03-12T00:58:17;4.20;;;2.53;;
16354;SDS011;8287;51.644;8.494;2023-03-12T01:00:45;6.40;;;2.55;;
16354;SDS011;8287;51.644;8.494;2023-03-12T01:03:12;7.35;;;2.50;;
16354;SDS011;8287;51.644;8.494;2023-03-12T01:05:39;4.65;;;2.17;;
16354;SDS011;8287;51.644;8.494;2023-03-12T01:08:06;5.05;;;2.63;;
16354;SDS011;8287;51.644;8.494;2023-03-12T01:10:33;3.92;;;2.30;;
16354;SDS011;8287;51.644;8.494;2023-03-12T01:12:59;3.63;;;2.08;;
16354;SDS011;8287;51.644;8.494;2023-03-12T01:15:26;3.95;;;2.25;;
16354;SDS011;8287;51.644;8.494;2023-03-12T01:17:55;5.28;;;2.63;;
16354;SDS011;8287;51.644;8.494;2023-03-12T01:20:21;6.97;;;2.03;;
16354;SDS011;8287;51.644;8.494;2023-03-12T01:22:48;4.38;;;1.90;;
16354;SDS011;8287;51.644;8.494;2023-03-12T01:25:15;5.07;;;1.45;;
16354;SDS011;8287;51.644;8.494;2023-03-12T01:27:42;7.10;;;1.65;;
16354;SDS011;8287;51.644;8.494;2023-03-12T01:30:09;2.35;;;1.92;;
16354;SDS011;8287;51.644;8.494;2023-03-12T01:32:36;2.47;;;1.92;;
16354;SDS011;8287;51.644;8.494;2023-03-12T01:35:05;3.20;;;1.70;;
16354;SDS011;8287;51.644;8.494;2023-03-12T01:37:32;3.45;;;1.60;;
16354;SDS011;8287;51.644;8.494;2023-03-12T01:39:59;5.30;;;2.15;;
16354;SDS011;8287;51.644;8.494;2023-03-12T01:42:25;5.00;;;1.50;;
16354;SDS011;8287;51.644;8.494;2023-03-12T01:44:53;3.30;;;1.77;;
16354;SDS011;8287;51.644;8.494;2023-03-12T01:47:21;4.50;;;1.38;;
16354;SDS011;8287;51.644;8.494;2023-03-12T01:49:49;2.38;;;1.70;;
16354;SDS011;8287;51.644;8.494;2023-03-12T01:52:19;3.80;;;1.38;;
16354;SDS011;8287;51.644;8.494;2023-03-12T01:54:49;2.15;;;1.58;;
16354;SDS011;8287;51.644;8.494;2023-03-12T01:57:21;3.35;;;1.15;;
16354;SDS011;8287;51.644;8.494;2023-03-12T01:59:53;2.65;;;1.55;;
16354;SDS011;8287;51.644;8.494;2023-03-12T02:02:23;3.00;;;1.88;;
16354;SDS011;8287;51.644;8.494;2023-03-12T02:04:55;2.55;;;1.30;;
16354;SDS011;8287;51.644;8.494;2023-03-12T02:07:33;1.27;;;1.02;;
16354;SDS011;8287;51.644;8.494;2023-03-12T02:10:00;1.98;;;1.70;;
16354;SDS011;8287;51.644;8.494;2023-03-12T02:12:28;3.00;;;1.58;;
16354;SDS011;8287;51.644;8.494;2023-03-12T02:14:55;2.70;;;1.80;;
16354;SDS011;8287;51.644;8.494;2023-03-12T02:17:21;2.88;;;1.70;;
16354;SDS011;8287;51.644;8.494;2023-03-12T02:19:49;10.43;;;2.58;;
16354;SDS011;8287;51.644;8.494;2023-03-12T02:22:21;2.20;;;1.55;;
16354;SDS011;8287;51.644;8.494;2023-03-12T02:24:51;1.58;;;1.30;;
16354;SDS011;8287;51.644;8.494;2023-03-12T02:27:23;3.25;;;1.50;;
16354;SDS011;8287;51.644;8.494;2023-03-12T02:29:50;2.85;;;1.65;;
16354;SDS011;8287;51.644;8.494;2023-03-12T02:32:19;2.40;;;1.42;;
16354;SDS011;8287;51.644;8.494;2023-03-12T02:34:50;3.17;;;1.42;;
16354;SDS011;8287;51.644;8.494;2023-03-12T02:37:16;3.40;;;1.67;;
16354;SDS011;8287;51.644;8.494;2023-03-12T02:39:45;6.60;;;1.65;;
16354;SDS011;8287;51.644;8.494;2023-03-12T02:42:19;3.22;;;1.42;;
16354;SDS011;8287;51.644;8.494;2023-03-12T02:44:48;3.95;;;1.55;;
16354;SDS011;8287;51.644;8.494;2023-03-12T02:47:15;1.48;;;1.17;;
16354;SDS011;8287;51.644;8.494;2023-03-12T02:49:41;2.47;;;1.20;;
16354;SDS011;8287;51.644;8.494;2023-03-12T02:52:08;3.72;;;1.60;;
16354;SDS011;8287;51.644;8.494;2023-03-12T02:54:34;2.78;;;1.48;;
16354;SDS011;8287;51.644;8.494;2023-03-12T02:57:01;3.53;;;1.20;;
16354;SDS011;8287;51.644;8.494;2023-03-12T02:59:28;3.78;;;1.67;;
16354;SDS011;8287;51.644;8.494;2023-03-12T03:01:56;2.40;;;1.50;;
16354;SDS011;8287;51.644;8.494;2023-03-12T03:04:24;3.88;;;1.70;;
16354;SDS011;8287;51.644;8.494;2023-03-12T03:06:51;4.50;;;1.55;;
16354;SDS011;8287;51.644;8.494;2023-03-12T03:09:18;3.00;;;1.42;;
16354;SDS011;8287;51.644;8.494;2023-03-12T03:11:46;5.28;;;1.52;;
16354;SDS011;8287;51.644;8.494;2023-03-12T03:14:12;2.35;;;1.40;;
16354;SDS011;8287;51.644;8.494;2023-03-12T03:16:39;5.35;;;2.03;;
16354;SDS011;8287;51.644;8.494;2023-03-12T03:19:07;3.58;;;1.52;;
16354;SDS011;8287;51.644;8.494;2023-03-12T03:21:35;4.97;;;1.70;;
16354;SDS011;8287;51.644;8.494;2023-03-12T03:24:02;6.53;;;1.80;;
16354;SDS011;8287;51.644;8.494;2023-03-12T03:26:29;4.03;;;1.58;;
16354;SDS011;8287;51.644;8.494;2023-03-12T03:28:56;1.73;;;1.58;;
16354;SDS011;8287;51.644;8.494;2023-03-12T03:31:23;2.85;;;1.70;;
16354;SDS011;8287;51.644;8.494;2023-03-12T03:33:50;2.90;;;1.40;;
16354;SDS011;8287;51.644;8.494;2023-03-12T03:36:18;1.52;;;1.23;;
16354;SDS011;8287;51.644;8.494;2023-03-12T03:38:45;2.45;;;1.45;;
16354;SDS011;8287;51.644;8.494;2023-03-12T03:41:13;1.63;;;1.05;;
16354;SDS011;8287;51.644;8.494;2023-03-12T03:43:40;3.13;;;1.67;;
16354;SDS011;8287;51.644;8.494;2023-03-12T03:46:07;3.83;;;1.52;;
16354;SDS011;8287;51.644;8.494;2023-03-12T03:48:35;1.38;;;1.20;;
16354;SDS011;8287;51.644;8.494;2023-03-12T03:51:03;2.25;;;1.40;;
16354;SDS011;8287;51.644;8.494;2023-03-12T03:53:32;3.90;;;1.33;;
16354;SDS011;8287;51.644;8.494;2023-03-12T03:56:03;1.95;;;1.25;;
16354;SDS011;8287;51.644;8.494;2023-03-12T03:58:31;4.82;;;1.48;;
16354;SDS011;8287;51.644;8.494;2023-03-12T04:00:57;5.20;;;1.52;;
16354;SDS011;8287;51.644;8.494;2023-03-12T04:03:24;2.67;;;1.77;;
16354;SDS011;8287;51.644;8.494;2023-03-12T04:05:52;3.05;;;1.70;;
16354;SDS011;8287;51.644;8.494;2023-03-12T04:08:19;3.03;;;1.45;;
16354;SDS011;8287;51.644;8.494;2023-03-12T04:10:47;5.53;;;1.92;;
16354;SDS011;8287;51.644;8.494;2023-03-12T04:13:14;4.32;;;1.67;;
16354;SDS011;8287;51.644;8.494;2023-03-12T04:15:44;5.28;;;1.30;;
16354;SDS011;8287;51.644;8.494;2023-03-12T04:18:11;4.40;;;1.50;;
16354;SDS011;8287;51.644;8.494;2023-03-12T04:20:38;1.42;;;1.13;;
16354;SDS011;8287;51.644;8.494;2023-03-12T04:23:04;5.07;;;1.42;;
16354;SDS011;8287;51.644;8.494;2023-03-12T04:25:31;4.10;;;1.55;;
16354;SDS011;8287;51.644;8.494;2023-03-12T04:27:59;3.35;;;1.48;;
16354;SDS011;8287;51.644;8.494;2023-03-12T04:30:26;2.95;;;1.48;;
16354;SDS011;8287;51.644;8.494;2023-03-12T04:32:53;4.40;;;1.80;;
16354;SDS011;8287;51.644;8.494;2023-03-12T04:35:20;2.92;;;1.10;;
16354;SDS011;8287;51.644;8.494;2023-03-12T04:37:49;6.55;;;2.53;;
16354;SDS011;8287;51.644;8.494;2023-03-12T04:40:15;1.10;;;1.00;;
16354;SDS011;8287;51.644;8.494;2023-03-12T04:42:44;4.30;;;1.35;;
16354;SDS011;8287;51.644;8.494;2023-03-12T04:45:12;3.75;;;1.40;;
16354;SDS011;8287;51.644;8.494;2023-03-12T04:47:39;2.83;;;1.33;;
16354;SDS011;8287;51.644;8.494;2023-03-12T04:50:06;3.55;;;1.38;;
16354;SDS011;8287;51.644;8.494;2023-03-12T04:52:33;2.65;;;1.55;;
16354;SDS011;8287;51.644;8.494;2023-03-12T04:55:00;3.55;;;0.98;;
16354;SDS011;8287;51.644;8.494;2023-03-12T04:57:27;3.72;;;1.70;;
16354;SDS011;8287;51.644;8.494;2023-03-12T04:59:54;3.13;;;1.80;;
16354;SDS011;8287;51.644;8.494;2023-03-12T05:02:21;2.58;;;1.33;;
16354;SDS011;8287;51.644;8.494;2023-03-12T05:04:48;3.35;;;1.67;;
16354;SDS011;8287;51.644;8.494;2023-03-12T05:07:15;5.45;;;1.45;;
16354;SDS011;8287;51.644;8.494;2023-03-12T05:09:41;4.50;;;1.40;;
16354;SDS011;8287;51.644;8.494;2023-03-12T05:12:10;5.05;;;1.52;;
16354;SDS011;8287;51.644;8.494;2023-03-12T05:14:37;4.88;;;1.33;;
16354;SDS011;8287;51.644;8.494;2023-03-12T05:17:04;2.00;;;1.27;;
16354;SDS011;8287;51.644;8.494;2023-03-12T05:19:32;1.65;;;1.20;;
16354;SDS011;8287;51.644;8.494;2023-03-12T05:21:59;5.38;;;1.30;;
16354;SDS011;8287;51.644;8.494;2023-03-12T05:24:26;5.35;;;1.33;;
16354;SDS011;8287;51.644;8.494;2023-03-12T05:26:53;4.32;;;1.10;;
16354;SDS011;8287;51.644;8.494;2023-03-12T05:29:19;4.03;;;1.45;;
16354;SDS011;8287;51.644;8.494;2023-03-12T05:31:46;2.88;;;1.60;;
16354;SDS011;8287;51.644;8.494;2023-03-12T05:34:13;3.53;;;1.73;;
16354;SDS011;8287;51.644;8.494;2023-03-12T05:36:42;4.53;;;1.33;;
16354;SDS011;8287;51.644;8.494;2023-03-12T05:39:09;2.50;;;1.20;;
16354;SDS011;8287;51.644;8.494;2023-03-12T05:41:35;8.23;;;1.48;;
16354;SDS011;8287;51.644;8.494;2023-03-12T05:44:02;3.83;;;1.55;;
16354;SDS011;8287;51.644;8.494;2023-03-12T05:46:28;7.00;;;2.17;;
16354;SDS011;8287;51.644;8.494;2023-03-12T05:48:55;5.55;;;1.33;;
16354;SDS011;8287;51.644;8.494;2023-03-12T05:51:22;2.95;;;1.45;;
16354;SDS011;8287;51.644;8.494;2023-03-12T05:53:50;3.58;;;1.77;;
16354;SDS011;8287;51.644;8.494;2023-03-12T05:56:16;1.92;;;1.33;;
16354;SDS011;8287;51.644;8.494;2023-03-12T05:58:43;3.60;;;1.52;;
16354;SDS011;8287;51.644;8.494;2023-03-12T06:01:11;1.23;;;1.00;;
16354;SDS011;8287;51.644;8.494;2023-03-12T06:03:38;1.48;;;0.90;;
16354;SDS011;8287;51.644;8.494;2023-03-12T06:06:08;7.03;;;1.25;;
16354;SDS011;8287;51.644;8.494;2023-03-12T06:08:35;3.25;;;1.33;;
16354;SDS011;8287;51.644;8.494;2023-03-12T06:11:03;5.03;;;1.60;;
16354;SDS011;8287;51.644;8.494;2023-03-12T06:13:29;5.40;;;1.60;;
16354;SDS011;8287;51.644;8.494;2023-03-12T06:16:00;1.70;;;1.52;;
16354;SDS011;8287;51.644;8.494;2023-03-12T06:18:28;3.80;;;1.02;;
16354;SDS011;8287;51.644;8.494;2023-03-12T06:20:55;5.07;;;1.38;;
16354;SDS011;8287;51.644;8.494;2023-03-12T06:23:32;3.00;;;1.27;;
16354;SDS011;8287;51.644;8.494;2023-03-12T06:25:58;2.72;;;1.35;;
16354;SDS011;8287;51.644;8.494;2023-03-12T06:28:26;1.75;;;1.25;;
16354;SDS011;8287;51.644;8.494;2023-03-12T06:30:53;3.05;;;1.40;;
16354;SDS011;8287;51.644;8.494;2023-03-12T06:33:20;3.65;;;1.67;;
16354;SDS011;8287;51.644;8.494;2023-03-12T06:35:47;4.53;;;1.50;;
16354;SDS011;8287;51.644;8.494;2023-03-12T06:38:14;2.13;;;1.08;;
16354;SDS011;8287;51.644;8.494;2023-03-12T06:40:40;2.10;;;1.00;;
16354;SDS011;8287;51.644;8.494;2023-03-12T06:43:07;2.80;;;1.05;;
16354;SDS011;8287;51.644;8.494;2023-03-12T06:45:37;1.70;;;1.00;;
16354;SDS011;8287;51.644;8.494;2023-03-12T06:48:04;3.95;;;1.42;;
16354;SDS011;8287;51.644;8.494;2023-03-12T06:50:30;4.70;;;1.10;;
16354;SDS011;8287;51.644;8.494;2023-03-12T06:52:57;1.20;;;0.98;;
16354;SDS011;8287;51.644;8.494;2023-03-12T06:55:24;2.10;;;1.08;;
16354;SDS011;8287;51.644;8.494;2023-03-12T06:57:50;5.38;;;1.20;;
16354;SDS011;8287;51.644;8.494;2023-03-12T07:00:17;2.17;;;1.00;;
16354;SDS011;8287;51.644;8.494;2023-03-12T07:02:45;2.78;;;1.10;;
16354;SDS011;8287;51.644;8.494;2023-03-12T07:05:12;11.43;;;1.63;;
16354;SDS011;8287;51.644;8.494;2023-03-12T07:07:39;4.93;;;1.40;;
16354;SDS011;8287;51.644;8.494;2023-03-12T07:10:05;2.35;;;1.17;;
16354;SDS011;8287;51.644;8.494;2023-03-12T07:12:32;4.40;;;1.10;;
16354;SDS011;8287;51.644;8.494;2023-03-12T07:14:59;3.20;;;1.33;;
16354;SDS011;8287;51.644;8.494;2023-03-12T07:17:25;2.10;;;1.20;;
16354;SDS011;8287;51.644;8.494;2023-03-12T07:19:53;4.20;;;1.23;;
16354;SDS011;8287;51.644;8.494;2023-03-12T07:22:20;2.08;;;1.35;;
16354;SDS011;8287;51.644;8.494;2023-03-12T07:24:46;3.88;;;1.48;;
16354;SDS011;8287;51.644;8.494;2023-03-12T07:27:13;1.45;;;1.15;;
16354;SDS011;8287;51.644;8.494;2023-03-12T07:29:40;3.13;;;1.35;;
16354;SDS011;8287;51.644;8.494;2023-03-12T07:32:06;3.55;;;1.90;;
16354;SDS011;8287;51.644;8.494;2023-03-12T07:34:33;3.53;;;2.30;;
16354;SDS011;8287;51.644;8.494;2023-03-12T07:37:01;3.67;;;1.80;;
16354;SDS011;8287;51.644;8.494;2023-03-12T07:39:28;4.40;;;1.73;;
16354;SDS011;8287;51.644;8.494;2023-03-12T07:41:54;6.68;;;1.63;;
16354;SDS011;8287;51.644;8.494;2023-03-12T07:44:21;2.47;;;1.38;;
16354;SDS011;8287;51.644;8.494;2023-03-12T07:46:50;2.50;;;1.23;;
16354;SDS011;8287;51.644;8.494;2023-03-12T07:49:16;3.40;;;1.13;;
16354;SDS011;8287;51.644;8.494;2023-03-12T07:51:43;4.13;;;1.48;;
16354;SDS011;8287;51.644;8.494;2023-03-12T07:54:11;3.40;;;1.23;;
16354;SDS011;8287;51.644;8.494;2023-03-12T07:56:38;4.13;;;1.50;;
16354;SDS011;8287;51.644;8.494;2023-03-12T07:59:05;2.50;;;1.17;;
16354;SDS011;8287;51.644;8.494;2023-03-12T08:01:31;2.65;;;1.60;;
16354;SDS011;8287;51.644;8.494;2023-03-12T08:03:58;8.48;;;1.52;;
16354;SDS011;8287;51.644;8.494;2023-03-12T08:06:25;8.60;;;1.45;;
16354;SDS011;8287;51.644;8.494;2023-03-12T08:08:51;7.10;;;1.50;;
16354;SDS011;8287;51.644;8.494;2023-03-12T08:11:19;2.17;;;1.60;;
16354;SDS011;8287;51.644;8.494;2023-03-12T08:13:46;5.13;;;1.92;;
16354;SDS011;8287;51.644;8.494;2023-03-12T08:16:13;3.88;;;1.45;;
16354;SDS011;8287;51.644;8.494;2023-03-12T08:18:39;3.28;;;2.00;;
16354;SDS011;8287;51.644;8.494;2023-03-12T08:21:07;4.32;;;1.77;;
16354;SDS011;8287;51.644;8.494;2023-03-12T08:23:34;4.45;;;1.70;;
16354;SDS011;8287;51.644;8.494;2023-03-12T08:26:00;4.05;;;1.83;;
16354;SDS011;8287;51.644;8.494;2023-03-12T08:28:28;2.20;;;1.27;;
16354;SDS011;8287;51.644;8.494;2023-03-12T08:30:57;5.53;;;1.60;;
16354;SDS011;8287;51.644;8.494;2023-03-12T08:33:26;5.75;;;1.40;;
16354;SDS011;8287;51.644;8.494;2023-03-12T08:35:53;2.97;;;1.30;;
16354;SDS011;8287;51.644;8.494;2023-03-12T08:38:20;2.10;;;1.50;;
16354;SDS011;8287;51.644;8.494;2023-03-12T08:40:53;3.70;;;1.67;;
16354;SDS011;8287;51.644;8.494;2023-03-12T08:43:20;8.55;;;1.77;;
16354;SDS011;8287;51.644;8.494;2023-03-12T08:45:52;5.97;;;2.00;;
16354;SDS011;8287;51.644;8.494;2023-03-12T08:48:19;3.03;;;1.58;;
16354;SDS011;8287;51.644;8.494;2023-03-12T08:50:46;4.53;;;1.55;;
16354;SDS011;8287;51.644;8.494;2023-03-12T08:53:12;5.43;;;1.35;;
16354;SDS011;8287;51.644;8.494;2023-03-12T08:55:39;3.78;;;1.40;;
16354;SDS011;8287;51.644;8.494;2023-03-12T08:58:06;3.63;;;2.05;;
16354;SDS011;8287;51.644;8.494;2023-03-12T09:00:32;1.95;;;1.40;;
16354;SDS011;8287;51.644;8.494;2023-03-12T09:03:00;3.20;;;2.10;;
16354;SDS011;8287;51.644;8.494;2023-03-12T09:05:27;7.10;;;1.50;;
16354;SDS011;8287;51.644;8.494;2023-03-12T09:07:54;4.18;;;1.42;;
16354;SDS011;8287;51.644;8.494;2023-03-12T09:10:21;2.78;;;1.55;;
16354;SDS011;8287;51.644;8.494;2023-03-12T09:12:48;6.45;;;1.67;;
16354;SDS011;8287;51.644;8.494;2023-03-12T09:15:14;4.38;;;1.95;;
16354;SDS011;8287;51.644;8.494;2023-03-12T09:17:41;4.20;;;1.92;;
16354;SDS011;8287;51.644;8.494;2023-03-12T09:20:09;4.88;;;2.38;;
16354;SDS011;8287;51.644;8.494;2023-03-12T09:22:38;8.05;;;1.80;;
16354;SDS011;8287;51.644;8.494;2023-03-12T09:25:06;2.75;;;2.10;;
16354;SDS011;8287;51.644;8.494;2023-03-12T09:27:34;2.65;;;1.48;;
16354;SDS011;8287;51.644;8.494;2023-03-12T09:30:01;2.85;;;1.63;;
16354;SDS011;8287;51.644;8.494;2023-03-12T09:32:29;3.33;;;1.45;;
16354;SDS011;8287;51.644;8.494;2023-03-12T09:34:55;2.60;;;1.70;;
16354;SDS011;8287;51.644;8.494;2023-03-12T09:37:23;3.33;;;1.70;;
16354;SDS011;8287;51.644;8.494;2023-03-12T09:39:50;4.00;;;2.28;;
16354;SDS011;8287;51.644;8.494;2023-03-12T09:42:20;5.18;;;1.85;;
16354;SDS011;8287;51.644;8.494;2023-03-12T09:44:48;4.50;;;1.90;;
16354;SDS011;8287;51.644;8.494;2023-03-12T09:47:19;3.50;;;1.52;;
16354;SDS011;8287;51.644;8.494;2023-03-12T09:49:52;3.83;;;2.17;;
16354;SDS011;8287;51.644;8.494;2023-03-12T09:52:26;3.75;;;2.40;;
16354;SDS011;8287;51.644;8.494;2023-03-12T09:54:57;8.57;;;3.22;;
16354;SDS011;8287;51.644;8.494;2023-03-12T09:57:28;4.75;;;2.15;;
16354;SDS011;8287;51.644;8.494;2023-03-12T09:59:55;3.15;;;2.35;;
16354;SDS011;8287;51.644;8.494;2023-03-12T10:02:28;3.35;;;1.95;;
16354;SDS011;8287;51.644;8.494;2023-03-12T10:05:08;4.95;;;1.92;;
16354;SDS011;8287;51.644;8.494;2023-03-12T10:07:45;2.70;;;1.65;;
16354;SDS011;8287;51.644;8.494;2023-03-12T10:10:20;3.67;;;2.53;;
16354;SDS011;8287;51.644;8.494;2023-03-12T10:12:58;1.60;;;1.50;;
16354;SDS011;8287;51.644;8.494;2023-03-12T10:15:35;3.58;;;2.50;;
16354;SDS011;8287;51.644;8.494;2023-03-12T10:18:13;2.97;;;1.80;;
16354;SDS011;8287;51.644;8.494;2023-03-12T10:20:54;3.15;;;1.63;;
16354;SDS011;8287;51.644;8.494;2023-03-12T10:23:36;1.42;;;1.33;;
16354;SDS011;8287;51.644;8.494;2023-03-12T10:26:11;3.13;;;1.90;;
16354;SDS011;8287;51.644;8.494;2023-03-12T10:28:41;3.90;;;2.17;;
16354;SDS011;8287;51.644;8.494;2023-03-12T10:31:12;1.83;;;1.42;;
16354;SDS011;8287;51.644;8.494;2023-03-12T10:33:48;2.90;;;1.73;;
16354;SDS011;8287;51.644;8.494;2023-03-12T10:36:19;2.63;;;1.67;;
16354;SDS011;8287;51.644;8.494;2023-03-12T10:38:52;1.85;;;1.65;;
16354;SDS011;8287;51.644;8.494;2023-03-12T10:41:20;1.35;;;1.27;;
16354;SDS011;8287;51.644;8.494;2023-03-12T10:43:49;1.65;;;1.50;;
16354;SDS011;8287;51.644;8.494;2023-03-12T10:46:29;1.40;;;1.30;;
16354;SDS011;8287;51.644;8.494;2023-03-12T10:49:25;1.55;;;1.45;;
16354;SDS011;8287;51.644;8.494;2023-03-12T10:51:55;2.95;;;1.75;;
16354;SDS011;8287;51.644;8.494;2023-03-12T10:54:27;2.95;;;1.83;;
16354;SDS011;8287;51.644;8.494;2023-03-12T10:56:58;2.28;;;1.73;;
16354;SDS011;8287;51.644;8.494;2023-03-12T10:59:26;1.95;;;1.80;;
16354;SDS011;8287;51.644;8.494;2023-03-12T11:01:55;1.70;;;1.60;;
16354;SDS011;8287;51.644;8.494;2023-03-12T11:04:23;2.22;;;1.70;;
16354;SDS011;8287;51.644;8.494;2023-03-12T11:09:44;2.10;;;1.90;;
16354;SDS011;8287;51.644;8.494;2023-03-12T11:12:21;3.47;;;2.40;;
16354;SDS011;8287;51.644;8.494;2023-03-12T11:14:49;2.03;;;1.85;;
16354;SDS011;8287;51.644;8.494;2023-03-12T11:17:18;1.95;;;1.83;;
16354;SDS011;8287;51.644;8.494;2023-03-12T11:19:46;2.75;;;2.40;;
16354;SDS011;8287;51.644;8.494;2023-03-12T11:22:13;2.20;;;2.00;;
16354;SDS011;8287;51.644;8.494;2023-03-12T11:24:57;1.90;;;1.80;;
16354;SDS011;8287;51.644;8.494;2023-03-12T11:27:29;2.28;;;1.80;;
16354;SDS011;8287;51.644;8.494;2023-03-12T11:30:02;1.90;;;1.45;;
16354;SDS011;8287;51.644;8.494;2023-03-12T11:32:30;3.70;;;2.22;;
16354;SDS011;8287;51.644;8.494;2023-03-12T11:35:00;3.42;;;2.10;;
16354;SDS011;8287;51.644;8.494;2023-03-12T11:37:30;2.10;;;1.90;;
16354;SDS011;8287;51.644;8.494;2023-03-12T11:40:17;1.55;;;1.45;;
16354;SDS011;8287;51.644;8.494;2023-03-12T11:42:58;1.92;;;1.70;;
16354;SDS011;8287;51.644;8.494;2023-03-12T11:45:39;1.95;;;1.75;;
16354;SDS011;8287;51.644;8.494;2023-03-12T11:48:15;2.13;;;1.88;;
16354;SDS011;8287;51.644;8.494;2023-03-12T11:50:53;1.80;;;1.65;;
16354;SDS011;8287;51.644;8.494;2023-03-12T11:53:34;1.40;;;1.13;;
16354;SDS011;8287;51.644;8.494;2023-03-12T11:56:18;2.40;;;2.20;;
16354;SDS011;8287;51.644;8.494;2023-03-12T11:58:55;4.07;;;1.70;;
16354;SDS011;8287;51.644;8.494;2023-03-12T12:01:33;1.40;;;1.30;;
16354;SDS011;8287;51.644;8.494;2023-03-12T12:04:12;1.20;;;1.10;;
16354;SDS011;8287;51.644;8.494;2023-03-12T12:07:01;1.77;;;1.42;;
16354;SDS011;8287;51.644;8.494;2023-03-12T12:09:37;1.23;;;1.13;;
16354;SDS011;8287;51.644;8.494;2023-03-12T12:12:19;1.55;;;1.13;;
16354;SDS011;8287;51.644;8.494;2023-03-12T12:15:03;1.38;;;1.27;;
16354;SDS011;8287;51.644;8.494;2023-03-12T12:17:43;2.75;;;1.15;;
16354;SDS011;8287;51.644;8.494;2023-03-12T12:20:20;2.30;;;1.35;;
16354;SDS011;8287;51.644;8.494;2023-03-12T12:23:07;2.65;;;1.67;;
16354;SDS011;8287;51.644;8.494;2023-03-12T12:25:45;1.60;;;1.35;;
16354;SDS011;8287;51.644;8.494;2023-03-12T12:28:31;1.60;;;1.50;;
16354;SDS011;8287;51.644;8.494;2023-03-12T12:31:12;1.35;;;1.25;;
16354;SDS011;8287;51.644;8.494;2023-03-12T12:33:53;2.90;;;1.55;;
16354;SDS011;8287;51.644;8.494;2023-03-12T12:36:28;1.50;;;1.40;;
16354;SDS011;8287;51.644;8.494;2023-03-12T12:38:58;1.13;;;0.93;;
16354;SDS011;8287;51.644;8.494;2023-03-12T12:41:31;2.55;;;1.67;;
16354;SDS011;8287;51.644;8.494;2023-03-12T12:44:03;1.42;;;1.33;;
16354;SDS011;8287;51.644;8.494;2023-03-12T12:46:36;1.40;;;1.30;;
16354;SDS011;8287;51.644;8.494;2023-03-12T12:49:08;1.55;;;1.45;;
16354;SDS011;8287;51.644;8.494;2023-03-12T12:51:39;1.98;;;1.88;;
16354;SDS011;8287;51.644;8.494;2023-03-12T12:54:10;3.08;;;1.90;;
16354;SDS011;8287;51.644;8.494;2023-03-12T12:56:47;2.63;;;1.92;;
16354;SDS011;8287;51.644;8.494;2023-03-12T12:59:23;2.58;;;1.45;;
16354;SDS011;8287;51.644;8.494;2023-03-12T13:01:56;2.35;;;1.73;;
16354;SDS011;8287;51.644;8.494;2023-03-12T13:04:26;3.22;;;2.25;;
16354;SDS011;8287;51.644;8.494;2023-03-12T13:06:59;1.80;;;1.67;;
16354;SDS011;8287;51.644;8.494;2023-03-12T13:09:35;2.28;;;1.90;;
16354;SDS011;8287;51.644;8.494;2023-03-12T13:12:10;2.60;;;1.77;;
16354;SDS011;8287;51.644;8.494;2023-03-12T13:14:41;3.05;;;1.80;;
16354;SDS011;8287;51.644;8.494;2023-03-12T13:17:19;3.83;;;1.90;;
16354;SDS011;8287;51.644;8.494;2023-03-12T13:19:49;2.50;;;2.20;;
16354;SDS011;8287;51.644;8.494;2023-03-12T13:22:24;2.65;;;1.95;;
16354;SDS011;8287;51.644;8.494;2023-03-12T13:25:03;3.70;;;2.80;;
16354;SDS011;8287;51.644;8.494;2023-03-12T13:27:43;2.75;;;2.38;;
16354;SDS011;8287;51.644;8.494;2023-03-12T13:33:15;2.92;;;2.10;;
16354;SDS011;8287;51.644;8.494;2023-03-12T13:38:35;2.60;;;2.40;;
16354;SDS011;8287;51.644;8.494;2023-03-12T13:41:04;4.80;;;3.60;;
16354;SDS011;8287;51.644;8.494;2023-03-12T13:46:39;6.38;;;3.20;;
16354;SDS011;8287;51.644;8.494;2023-03-12T13:49:15;4.22;;;2.88;;
16354;SDS011;8287;51.644;8.494;2023-03-12T13:51:44;2.70;;;2.50;;
16354;SDS011;8287;51.644;8.494;2023-03-12T13:54:18;4.18;;;3.05;;
16354;SDS011;8287;51.644;8.494;2023-03-12T13:56:53;3.45;;;2.50;;
16354;SDS011;8287;51.644;8.494;2023-03-12T13:59:23;2.60;;;2.40;;
16354;SDS011;8287;51.644;8.494;2023-03-12T14:01:55;1.92;;;1.83;;
16354;SDS011;8287;51.644;8.494;2023-03-12T14:04:28;2.70;;;2.35;;
16354;SDS011;8287;51.644;8.494;2023-03-12T14:07:02;3.45;;;2.33;;
16354;SDS011;8287;51.644;8.494;2023-03-12T14:09:47;2.78;;;2.58;;
16354;SDS011;8287;51.644;8.494;2023-03-12T14:12:27;2.55;;;2.33;;
16354;SDS011;8287;51.644;8.494;2023-03-12T14:15:03;3.83;;;2.78;;
16354;SDS011;8287;51.644;8.494;2023-03-12T14:17:38;5.05;;;2.33;;
16354;SDS011;8287;51.644;8.494;2023-03-12T14:20:10;2.55;;;1.88;;
16354;SDS011;8287;51.644;8.494;2023-03-12T14:22:42;3.20;;;2.50;;
16354;SDS011;8287;51.644;8.494;2023-03-12T14:25:12;2.88;;;2.33;;
16354;SDS011;8287;51.644;8.494;2023-03-12T14:27:43;2.33;;;2.10;;
16354;SDS011;8287;51.644;8.494;2023-03-12T14:30:12;5.30;;;2.50;;
16354;SDS011;8287;51.644;8.494;2023-03-12T14:32:46;2.70;;;1.92;;
16354;SDS011;8287;51.644;8.494;2023-03-12T14:35:16;7.75;;;5.55;;
16354;SDS011;8287;51.644;8.494;2023-03-12T14:37:46;6.55;;;4.55;;
16354;SDS011;8287;51.644;8.494;2023-03-12T14:40:22;7.40;;;4.80;;
16354;SDS011;8287;51.644;8.494;2023-03-12T14:42:51;6.60;;;4.55;;
16354;SDS011;8287;51.644;8.494;2023-03-12T14:45:20;7.80;;;3.67;;
16354;SDS011;8287;51.644;8.494;2023-03-12T14:47:51;5.85;;;2.85;;
16354;SDS011;8287;51.644;8.494;2023-03-12T14:50:21;3.03;;;2.50;;
16354;SDS011;8287;51.644;8.494;2023-03-12T14:52:49;3.10;;;2.50;;
16354;SDS011;8287;51.644;8.494;2023-03-12T14:55:16;3.25;;;2.22;;
16354;SDS011;8287;51.644;8.494;2023-03-12T14:57:46;3.97;;;3.08;;
16354;SDS011;8287;51.644;8.494;2023-03-12T15:00:20;4.57;;;3.30;;
16354;SDS011;8287;51.644;8.494;2023-03-12T15:02:49;6.32;;;3.30;;
16354;SDS011;8287;51.644;8.494;2023-03-12T15:05:19;5.15;;;2.60;;
16354;SDS011;8287;51.644;8.494;2023-03-12T15:07:47;6.72;;;3.40;;
16354;SDS011;8287;51.644;8.494;2023-03-12T15:10:16;7.78;;;3.15;;
16354;SDS011;8287;51.644;8.494;2023-03-12T15:12:47;3.67;;;3.30;;
16354;SDS011;8287;51.644;8.494;2023-03-12T15:18:04;5.32;;;3.53;;
16354;SDS011;8287;51.644;8.494;2023-03-12T15:20:32;6.82;;;3.83;;
16354;SDS011;8287;51.644;8.494;2023-03-12T15:23:00;4.82;;;3.40;;
16354;SDS011;8287;51.644;8.494;2023-03-12T15:25:28;7.72;;;3.88;;
16354;SDS011;8287;51.644;8.494;2023-03-12T15:28:04;11.07;;;4.32;;
16354;SDS011;8287;51.644;8.494;2023-03-12T15:30:33;7.18;;;4.20;;